Time;durP1;ratioP1;P1;durP2;ratioP2;P2;SDS_P1;SDS_P2;PMS_P1;PMS_P2;Temp;Humidity;BMP_temperature;BMP_pressure;BME280_temperature;BME280_humidity;BME280_pressure;Samples;Min_cycle;Max_cycle;Signal;HPM_P1;HPM_P2
2023/04/30 00:01:40;;;;;;;5.82;2.60;;;10.80;99.90;;;;;;5051043;28;20443;-63
2023/04/30 00:04:05;;;;;;;5.75;3.08;;;10.70;99.90;;;;;;5046406;28;20384;-63
2023/04/30 00:06:31;;;;;;;7.13;2.78;;;10.70;99.90;;;;;;5030519;28;20072;-62
2023/04/30 00:08:57;;;;;;;5.55;3.10;;;10.60;99.90;;;;;;5029226;28;20483;-62
2023/04/30 00:11:24;;;;;;;5.53;2.67;;;10.60;99.90;;;;;;5031214;28;20127;-62
2023/04/30 00:13:50;;;;;;;5.75;3.20;;;10.60;99.90;;;;;;5030078;28;20415;-63
2023/04/30 00:16:16;;;;;;;6.75;3.35;;;10.50;99.90;;;;;;5029697;28;20545;-62
2023/04/30 00:18:42;;;;;;;5.20;3.00;;;10.50;99.90;;;;;;5040933;28;20128;-63
2023/04/30 00:21:08;;;;;;;7.60;3.50;;;10.30;99.90;;;;;;5028588;28;20040;-63
2023/04/30 00:23:33;;;;;;;5.57;3.47;;;10.20;99.90;;;;;;5030371;28;20042;-63
2023/04/30 00:25:59;;;;;;;6.68;3.40;;;10.20;99.90;;;;;;5044019;28;20459;-63
2023/04/30 00:28:25;;;;;;;6.63;3.50;;;10.20;99.90;;;;;;5030488;28;20041;-63
2023/04/30 00:30:50;;;;;;;6.43;3.47;;;10.10;99.90;;;;;;5032249;28;20137;-63
2023/04/30 00:33:16;;;;;;;6.32;3.20;;;10.10;99.90;;;;;;5033850;28;20428;-64
2023/04/30 00:35:41;;;;;;;6.20;3.28;;;10.10;99.90;;;;;;5049565;28;20207;-63
2023/04/30 00:38:07;;;;;;;9.48;3.80;;;10.00;99.90;;;;;;5044981;28;20037;-63
2023/04/30 00:40:34;;;;;;;6.15;3.53;;;10.00;99.90;;;;;;5049308;28;20491;-63
2023/04/30 00:43:01;;;;;;;6.72;3.53;;;10.00;99.90;;;;;;5033551;28;20072;-63
2023/04/30 00:45:26;;;;;;;5.88;3.67;;;9.90;99.90;;;;;;5034610;28;20116;-63
2023/04/30 00:47:55;;;;;;;7.00;3.80;;;9.90;99.90;;;;;;5049076;28;20083;-63
2023/04/30 00:50:22;;;;;;;5.90;3.25;;;9.90;99.90;;;;;;5049232;28;20068;-63
2023/04/30 00:52:48;;;;;;;9.18;4.03;;;9.90;99.90;;;;;;5050762;28;20404;-62
2023/04/30 00:55:14;;;;;;;7.72;3.53;;;9.80;99.90;;;;;;5046630;28;20079;-63
2023/04/30 00:57:40;;;;;;;7.57;3.95;;;9.80;99.90;;;;;;5050690;28;20492;-62
2023/04/30 01:00:10;;;;;;;9.77;4.13;;;9.80;99.90;;;;;;5045941;28;20034;-62
2023/04/30 01:02:36;;;;;;;11.45;4.00;;;9.70;99.90;;;;;;5045024;28;20047;-65
2023/04/30 01:05:02;;;;;;;7.22;3.75;;;9.70;99.90;;;;;;5050736;28;20447;-63
2023/04/30 01:07:29;;;;;;;7.63;3.83;;;9.70;99.90;;;;;;5049281;28;20045;-63
2023/04/30 01:09:55;;;;;;;8.73;3.72;;;9.70;99.90;;;;;;5051732;28;20037;-64
2023/04/30 01:13:07;;;;;;;10.23;3.88;;;9.60;99.90;;;;;;5052156;28;20041;-63
2023/04/30 01:15:36;;;;;;;8.52;3.65;;;9.60;99.90;;;;;;5052385;28;20106;-63
2023/04/30 01:18:23;;;;;;;7.88;3.47;;;9.50;99.90;;;;;;5048321;28;20073;-63
2023/04/30 01:20:53;;;;;;;5.53;3.30;;;9.50;99.90;;;;;;5033316;28;20469;-64
2023/04/30 01:23:48;;;;;;;10.15;4.03;;;9.40;99.90;;;;;;5039799;28;20036;-63
2023/04/30 01:26:50;;;;;;;10.38;4.50;;;9.40;99.90;;;;;;5063322;28;20365;-63
2023/04/30 01:29:17;;;;;;;8.20;4.20;;;9.30;99.90;;;;;;5049015;28;20072;-64
2023/04/30 01:31:43;;;;;;;8.95;4.45;;;9.20;99.90;;;;;;5051915;28;20073;-63
2023/04/30 01:34:09;;;;;;;7.78;4.47;;;9.20;99.90;;;;;;5015529;28;20110;-63
2023/04/30 01:36:41;;;;;;;7.03;3.90;;;9.20;99.90;;;;;;5032890;28;20500;-64
2023/04/30 01:39:32;;;;;;;12.88;4.32;;;9.20;99.90;;;;;;5052458;28;20040;-64
2023/04/30 01:42:23;;;;;;;11.25;4.30;;;9.20;99.90;;;;;;5051876;28;20041;-64
2023/04/30 01:45:10;;;;;;;7.50;3.95;;;9.10;99.90;;;;;;5046264;28;20044;-63
2023/04/30 01:47:47;;;;;;;8.63;4.40;;;9.10;99.90;;;;;;5050957;28;20080;-63
2023/04/30 01:50:22;;;;;;;7.20;4.13;;;9.10;99.90;;;;;;5041594;28;20045;-64
2023/04/30 01:52:57;;;;;;;9.70;4.53;;;9.00;99.90;;;;;;5048343;28;20135;-63
2023/04/30 01:55:40;;;;;;;10.77;4.28;;;9.00;99.90;;;;;;5051532;28;20199;-63
2023/04/30 01:58:09;;;;;;;7.75;3.90;;;9.00;99.90;;;;;;5054163;28;20055;-64
2023/04/30 02:00:34;;;;;;;8.30;4.15;;;9.00;99.90;;;;;;5043268;28;20361;-64
2023/04/30 02:03:00;;;;;;;12.77;4.57;;;9.00;99.90;;;;;;5033182;28;20038;-63
2023/04/30 02:05:26;;;;;;;8.75;4.00;;;9.00;99.90;;;;;;5047630;28;20148;-64
2023/04/30 02:07:52;;;;;;;7.95;3.92;;;8.90;99.90;;;;;;5040589;28;20041;-63
2023/04/30 02:10:20;;;;;;;7.78;3.88;;;8.90;99.90;;;;;;5032249;28;20124;-64
2023/04/30 02:12:46;;;;;;;7.70;3.50;;;8.90;99.90;;;;;;5033869;28;20059;-65
2023/04/30 02:15:12;;;;;;;7.00;3.67;;;8.80;99.90;;;;;;5045008;28;20048;-64
2023/04/30 02:17:38;;;;;;;9.05;3.75;;;8.80;99.90;;;;;;5050401;28;20037;-63
2023/04/30 02:20:04;;;;;;;6.95;3.50;;;8.70;99.90;;;;;;5052475;28;20117;-64
2023/04/30 02:22:30;;;;;;;8.68;4.32;;;8.70;99.90;;;;;;5037674;28;20468;-64
2023/04/30 02:24:56;;;;;;;9.75;4.22;;;8.70;99.90;;;;;;5050604;28;20045;-63
2023/04/30 02:27:24;;;;;;;9.57;4.15;;;8.60;99.90;;;;;;5039928;28;20088;-63
2023/04/30 02:29:49;;;;;;;9.32;4.15;;;8.60;99.90;;;;;;5042091;28;20041;-63
2023/04/30 02:32:15;;;;;;;8.25;4.00;;;8.60;99.90;;;;;;5037316;28;20318;-63
2023/04/30 02:34:41;;;;;;;6.78;3.78;;;8.60;99.90;;;;;;5048561;28;20040;-63
2023/04/30 02:37:07;;;;;;;8.10;4.07;;;8.50;99.90;;;;;;5043963;28;20540;-63
2023/04/30 02:39:33;;;;;;;7.40;3.83;;;8.50;99.90;;;;;;5043725;28;20094;-63
2023/04/30 02:41:59;;;;;;;8.13;3.97;;;8.50;99.90;;;;;;5050643;28;20037;-63
2023/04/30 02:44:25;;;;;;;10.32;4.20;;;8.40;99.90;;;;;;5046139;28;20511;-63
2023/04/30 02:46:52;;;;;;;7.85;3.97;;;8.40;99.90;;;;;;5046469;28;20052;-64
2023/04/30 02:49:17;;;;;;;7.00;3.92;;;8.30;99.90;;;;;;5049828;28;20049;-64
2023/04/30 02:51:43;;;;;;;9.75;4.50;;;8.30;99.90;;;;;;5051167;28;20048;-64
2023/04/30 02:54:09;;;;;;;8.85;4.50;;;8.30;99.90;;;;;;5044356;28;20049;-64
2023/04/30 02:56:34;;;;;;;7.85;3.75;;;8.20;99.90;;;;;;5051212;28;20128;-63
2023/04/30 02:59:00;;;;;;;7.88;4.22;;;8.20;99.90;;;;;;5044770;28;20039;-63
2023/04/30 03:01:26;;;;;;;8.90;4.20;;;8.20;99.90;;;;;;5045787;28;20045;-63
2023/04/30 03:03:52;;;;;;;8.38;4.25;;;8.20;99.90;;;;;;5040978;28;20433;-64
2023/04/30 03:06:17;;;;;;;9.38;4.10;;;8.20;99.90;;;;;;5045321;28;20047;-63
2023/04/30 03:08:43;;;;;;;7.88;3.80;;;8.10;99.90;;;;;;5049463;28;20506;-63
2023/04/30 03:11:09;;;;;;;6.88;3.97;;;8.10;99.90;;;;;;5041557;28;20088;-64
2023/04/30 03:13:34;;;;;;;8.98;4.05;;;8.00;99.90;;;;;;5041481;28;20187;-63
2023/04/30 03:16:04;;;;;;;6.40;3.72;;;8.00;99.90;;;;;;5044014;28;20072;-65
2023/04/30 03:18:30;;;;;;;8.05;3.95;;;8.00;99.90;;;;;;5039564;28;20044;-64
2023/04/30 03:20:56;;;;;;;7.40;3.42;;;8.00;99.90;;;;;;5045007;28;20148;-63
2023/04/30 03:23:22;;;;;;;6.85;3.83;;;7.90;99.90;;;;;;5047140;28;20055;-64
2023/04/30 03:25:48;;;;;;;8.38;4.50;;;7.90;99.90;;;;;;5046029;28;20491;-63
2023/04/30 03:28:14;;;;;;;10.48;4.60;;;7.90;99.90;;;;;;5050319;28;20186;-63
2023/04/30 03:30:40;;;;;;;7.78;3.85;;;7.90;99.90;;;;;;5043683;28;20345;-64
2023/04/30 03:33:06;;;;;;;8.15;3.80;;;7.90;99.90;;;;;;5041036;28;20064;-64
2023/04/30 03:35:32;;;;;;;8.48;4.30;;;7.90;99.90;;;;;;5045735;28;20083;-63
2023/04/30 03:38:02;;;;;;;8.35;3.83;;;7.80;99.90;;;;;;5047976;28;20067;-63
2023/04/30 03:40:27;;;;;;;8.38;3.55;;;7.80;99.90;;;;;;5049070;28;20056;-63
2023/04/30 03:42:54;;;;;;;7.30;3.67;;;7.80;99.90;;;;;;5046199;28;20056;-63
2023/04/30 03:45:20;;;;;;;8.63;4.00;;;7.70;99.90;;;;;;5044897;28;20395;-63
2023/04/30 03:47:46;;;;;;;7.47;4.03;;;7.70;99.90;;;;;;5035461;28;20066;-62
2023/04/30 03:50:12;;;;;;;7.65;3.92;;;7.70;99.90;;;;;;5046567;28;20129;-63
2023/04/30 03:52:41;;;;;;;9.40;4.40;;;7.60;99.90;;;;;;5036433;28;20052;-63
2023/04/30 03:55:06;;;;;;;8.65;4.43;;;7.60;99.90;;;;;;5030833;28;20056;-63
2023/04/30 03:57:32;;;;;;;9.60;4.43;;;7.60;99.90;;;;;;5042966;28;20057;-62
2023/04/30 03:59:58;;;;;;;14.30;5.80;;;7.60;99.90;;;;;;5035934;28;20099;-63
2023/04/30 04:02:24;;;;;;;15.13;6.47;;;7.60;99.90;;;;;;5040455;28;20112;-64
2023/04/30 04:04:50;;;;;;;11.05;4.90;;;7.50;99.90;;;;;;5036100;28;20037;-63
2023/04/30 04:07:16;;;;;;;6.90;3.25;;;7.50;99.90;;;;;;5049368;28;20072;-63
2023/04/30 04:09:42;;;;;;;4.90;2.60;;;7.50;99.90;;;;;;5044358;28;20041;-63
2023/04/30 04:12:10;;;;;;;5.13;2.10;;;7.50;99.90;;;;;;5037466;28;20103;-63
2023/04/30 04:14:35;;;;;;;4.97;2.38;;;7.40;99.90;;;;;;5034019;28;20448;-62
2023/04/30 04:17:04;;;;;;;6.40;2.35;;;7.40;99.90;;;;;;5049897;28;20124;-64
2023/04/30 04:19:30;;;;;;;4.70;2.45;;;7.40;99.90;;;;;;5041305;28;20056;-62
2023/04/30 04:21:56;;;;;;;5.72;2.85;;;7.30;99.90;;;;;;5034647;28;20034;-63
2023/04/30 04:24:26;;;;;;;5.43;3.15;;;7.40;99.90;;;;;;5033004;28;20064;-62
2023/04/30 04:26:52;;;;;;;7.63;3.88;;;7.40;99.90;;;;;;5048547;28;20045;-63
2023/04/30 04:29:18;;;;;;;7.00;4.15;;;7.30;99.90;;;;;;5034143;28;20540;-62
2023/04/30 04:31:44;;;;;;;5.70;3.28;;;7.30;99.90;;;;;;5043996;28;20151;-63
2023/04/30 04:34:10;;;;;;;6.13;3.45;;;7.40;99.90;;;;;;5041508;28;20451;-63
2023/04/30 04:36:36;;;;;;;9.13;3.90;;;7.30;99.90;;;;;;5038617;28;20349;-63
2023/04/30 04:39:01;;;;;;;5.45;3.60;;;7.30;99.90;;;;;;5032835;28;20130;-63
2023/04/30 04:41:28;;;;;;;7.65;3.78;;;7.30;99.90;;;;;;5033848;28;20034;-64
2023/04/30 04:43:53;;;;;;;7.50;4.07;;;7.30;99.90;;;;;;5033870;28;20053;-63
2023/04/30 04:46:19;;;;;;;8.02;3.92;;;7.30;99.90;;;;;;5036920;28;20110;-64
2023/04/30 04:48:45;;;;;;;8.15;4.70;;;7.30;99.90;;;;;;5054344;28;20141;-63
2023/04/30 04:51:11;;;;;;;11.35;5.03;;;7.30;99.90;;;;;;5049103;28;20057;-63
2023/04/30 04:53:37;;;;;;;7.28;3.83;;;7.30;99.90;;;;;;5038587;28;20407;-63
2023/04/30 04:56:03;;;;;;;6.25;3.95;;;7.30;99.90;;;;;;5031721;28;20473;-63
2023/04/30 04:58:29;;;;;;;6.05;3.83;;;7.30;99.90;;;;;;5038743;28;20049;-64
2023/04/30 05:00:56;;;;;;;4.90;3.25;;;7.30;99.90;;;;;;5039779;28;20064;-64
2023/04/30 05:03:21;;;;;;;5.78;3.75;;;7.30;99.90;;;;;;5050676;28;20546;-63
2023/04/30 05:05:47;;;;;;;8.60;4.32;;;7.30;99.90;;;;;;5049038;28;20052;-63
2023/04/30 05:08:13;;;;;;;8.52;4.50;;;7.30;99.90;;;;;;5039755;28;20052;-62
2023/04/30 05:10:38;;;;;;;9.65;4.65;;;7.30;99.90;;;;;;5037712;28;20041;-62
2023/04/30 05:13:04;;;;;;;8.45;4.32;;;7.30;99.90;;;;;;5046754;28;20037;-62
2023/04/30 05:15:29;;;;;;;9.38;5.80;;;7.40;99.90;;;;;;5049010;28;20060;-62
2023/04/30 05:17:55;;;;;;;8.20;5.53;;;7.40;99.90;;;;;;5043277;28;20124;-64
2023/04/30 05:20:22;;;;;;;11.05;6.13;;;7.40;99.90;;;;;;5052324;28;20038;-63
2023/04/30 05:22:47;;;;;;;9.23;5.63;;;7.40;99.90;;;;;;5051420;28;20040;-62
2023/04/30 05:25:13;;;;;;;9.82;5.53;;;7.40;99.90;;;;;;5050097;28;20041;-62
2023/04/30 05:27:39;;;;;;;10.18;5.63;;;7.60;99.90;;;;;;5052043;28;20048;-63
2023/04/30 05:30:05;;;;;;;12.23;5.43;;;7.60;99.90;;;;;;5050785;28;20056;-63
2023/04/30 05:32:31;;;;;;;8.73;5.55;;;7.70;99.90;;;;;;5049672;28;20049;-63
2023/04/30 05:34:57;;;;;;;12.90;5.28;;;7.90;99.90;;;;;;5040628;28;20468;-65
2023/04/30 05:37:22;;;;;;;10.27;5.43;;;8.10;99.90;;;;;;5039648;28;20071;-63
2023/04/30 05:39:48;;;;;;;8.43;4.93;;;8.20;99.90;;;;;;5053811;28;20096;-63
2023/04/30 05:42:14;;;;;;;7.30;4.72;;;8.40;99.90;;;;;;5053247;28;20045;-63
2023/04/30 05:44:40;;;;;;;12.10;5.50;;;8.50;99.90;;;;;;5046266;28;20045;-63
2023/04/30 05:47:06;;;;;;;8.07;5.15;;;8.60;99.90;;;;;;5051048;28;20072;-64
2023/04/30 05:49:31;;;;;;;10.70;5.53;;;8.70;99.90;;;;;;5052166;28;20083;-63
2023/04/30 05:51:57;;;;;;;8.48;5.18;;;8.80;99.90;;;;;;5052410;28;20422;-63
2023/04/30 05:54:23;;;;;;;9.77;5.72;;;8.90;99.90;;;;;;5051109;28;20044;-63
2023/04/30 05:56:48;;;;;;;11.02;5.68;;;9.00;99.90;;;;;;5051096;28;20041;-63
2023/04/30 05:59:14;;;;;;;11.88;5.50;;;9.00;99.90;;;;;;5053856;28;20124;-63
2023/04/30 06:01:40;;;;;;;11.10;5.90;;;9.20;99.90;;;;;;5035784;28;20045;-64
2023/04/30 06:04:05;;;;;;;11.98;6.05;;;9.40;99.90;;;;;;5037116;28;20143;-63
2023/04/30 06:06:31;;;;;;;10.52;5.65;;;9.50;99.90;;;;;;5049935;28;20502;-64
2023/04/30 06:08:57;;;;;;;11.57;6.05;;;9.60;99.90;;;;;;5044233;28;20048;-63
2023/04/30 06:11:24;;;;;;;16.48;5.95;;;9.70;99.90;;;;;;5049162;28;20673;-63
2023/04/30 06:13:50;;;;;;;9.23;4.80;;;9.80;99.90;;;;;;5047730;28;20048;-64
2023/04/30 06:16:16;;;;;;;9.88;4.68;;;9.90;99.90;;;;;;5046627;28;20038;-64
2023/04/30 06:18:41;;;;;;;12.50;5.45;;;10.00;99.90;;;;;;5049747;28;20455;-63
2023/04/30 06:21:07;;;;;;;9.65;4.68;;;10.00;99.90;;;;;;5048602;28;20045;-63
2023/04/30 06:23:32;;;;;;;10.10;4.60;;;10.10;99.90;;;;;;5051838;28;20052;-63
2023/04/30 06:25:58;;;;;;;9.98;4.82;;;10.10;99.90;;;;;;5051401;28;20462;-63
2023/04/30 06:28:24;;;;;;;9.38;4.68;;;10.30;99.90;;;;;;5050855;28;22029;-63
2023/04/30 06:30:50;;;;;;;10.98;5.35;;;10.40;99.90;;;;;;5046745;28;20044;-63
2023/04/30 06:33:16;;;;;;;11.13;5.15;;;10.50;99.90;;;;;;5048046;28;20052;-64
2023/04/30 06:35:42;;;;;;;13.75;5.70;;;10.50;99.90;;;;;;5049812;28;20041;-63
2023/04/30 06:38:07;;;;;;;11.40;5.22;;;10.60;99.90;;;;;;5043479;28;20029;-63
2023/04/30 06:40:36;;;;;;;10.55;5.22;;;10.60;99.90;;;;;;5040564;28;20029;-65
2023/04/30 06:43:02;;;;;;;10.50;4.28;;;10.60;99.90;;;;;;5045616;28;20048;-63
2023/04/30 06:45:29;;;;;;;11.23;4.45;;;10.70;99.90;;;;;;5047923;28;20040;-65
2023/04/30 06:47:55;;;;;;;9.00;4.40;;;10.70;99.90;;;;;;5049684;28;20056;-63
2023/04/30 06:50:20;;;;;;;9.77;4.38;;;10.80;99.90;;;;;;5051779;28;20045;-64
2023/04/30 06:52:46;;;;;;;9.02;4.32;;;10.90;99.90;;;;;;5043255;28;20033;-62
2023/04/30 06:55:16;;;;;;;14.30;4.90;;;11.00;99.90;;;;;;5044591;28;20053;-64
2023/04/30 06:57:41;;;;;;;9.60;3.90;;;11.10;99.90;;;;;;5037341;28;20052;-63
2023/04/30 07:00:07;;;;;;;9.32;4.00;;;11.20;99.90;;;;;;5045463;28;20037;-63
2023/04/30 07:02:36;;;;;;;12.75;4.07;;;11.30;99.90;;;;;;5030523;28;20046;-63
2023/04/30 07:05:02;;;;;;;12.30;3.42;;;11.40;99.90;;;;;;5050063;28;20052;-62
2023/04/30 07:07:27;;;;;;;9.77;3.20;;;11.40;99.90;;;;;;5048304;28;20497;-64
2023/04/30 07:09:53;;;;;;;8.65;2.97;;;11.50;99.90;;;;;;5048630;28;20047;-66
2023/04/30 07:12:20;;;;;;;9.77;3.17;;;11.60;99.90;;;;;;5046904;28;20341;-63
2023/04/30 07:14:45;;;;;;;8.63;3.05;;;11.60;99.90;;;;;;5047111;28;20061;-67
2023/04/30 07:17:11;;;;;;;8.32;3.00;;;11.70;99.90;;;;;;5044063;28;20440;-64
2023/04/30 07:19:36;;;;;;;10.40;3.45;;;11.70;99.90;;;;;;5046032;28;20045;-63
2023/04/30 07:22:02;;;;;;;10.68;3.08;;;11.80;99.90;;;;;;5046175;28;20037;-63
2023/04/30 07:24:28;;;;;;;10.30;3.00;;;11.80;99.90;;;;;;5044367;28;20553;-61
2023/04/30 07:26:54;;;;;;;8.30;3.08;;;11.90;99.90;;;;;;5046974;28;20103;-62
2023/04/30 07:29:19;;;;;;;10.48;3.53;;;12.00;99.90;;;;;;5046657;28;20174;-62
2023/04/30 07:31:45;;;;;;;10.52;3.15;;;12.10;99.90;;;;;;5049311;28;20037;-63
2023/04/30 07:34:12;;;;;;;11.23;3.42;;;12.10;99.90;;;;;;5048308;28;21324;-62
2023/04/30 07:36:37;;;;;;;6.35;2.72;;;12.20;99.90;;;;;;5048704;28;20075;-63
2023/04/30 07:39:04;;;;;;;8.32;3.40;;;12.30;99.90;;;;;;5047880;28;20037;-63
2023/04/30 07:41:31;;;;;;;6.93;2.67;;;12.40;99.90;;;;;;5048028;28;20131;-63
2023/04/30 07:43:56;;;;;;;9.93;3.10;;;12.50;99.90;;;;;;5049227;28;20080;-64
2023/04/30 07:46:23;;;;;;;10.27;3.65;;;12.60;99.90;;;;;;5049593;28;20144;-64
2023/04/30 07:48:49;;;;;;;11.73;3.60;;;12.60;99.90;;;;;;5048638;28;20040;-64
2023/04/30 07:51:14;;;;;;;10.38;3.30;;;12.70;99.90;;;;;;5038661;28;20041;-64
2023/04/30 07:53:40;;;;;;;9.93;3.35;;;12.80;99.90;;;;;;5036231;28;20056;-66
2023/04/30 07:56:07;;;;;;;10.98;3.78;;;12.90;99.90;;;;;;5047393;28;20116;-64
2023/04/30 07:58:32;;;;;;;10.50;3.50;;;12.90;99.90;;;;;;5046006;28;20067;-63
2023/04/30 08:00:58;;;;;;;9.73;4.05;;;12.90;99.90;;;;;;5045259;28;20376;-62
2023/04/30 08:03:23;;;;;;;7.32;3.42;;;13.10;99.90;;;;;;5042422;28;20056;-63
2023/04/30 08:05:49;;;;;;;11.07;3.65;;;13.20;99.90;;;;;;5046000;28;20041;-64
2023/04/30 08:08:15;;;;;;;7.28;3.10;;;13.20;99.90;;;;;;5048304;28;20041;-64
2023/04/30 08:10:40;;;;;;;7.63;3.38;;;13.30;99.90;;;;;;5034308;28;20060;-63
2023/04/30 08:13:06;;;;;;;8.88;3.20;;;13.30;99.90;;;;;;5055361;28;20029;-62
2023/04/30 08:15:36;;;;;;;10.57;3.30;;;13.40;99.90;;;;;;5046075;28;20049;-63
2023/04/30 08:18:02;;;;;;;8.30;3.60;;;13.40;99.90;;;;;;5046662;28;20049;-63
2023/04/30 08:20:28;;;;;;;9.52;3.47;;;13.50;99.90;;;;;;5046380;28;20049;-63
2023/04/30 08:22:53;;;;;;;7.15;3.38;;;13.50;99.90;;;;;;5045552;28;20044;-62
2023/04/30 08:25:19;;;;;;;7.38;2.95;;;13.60;99.90;;;;;;5044683;28;20056;-62
2023/04/30 08:27:45;;;;;;;10.50;3.25;;;13.70;99.90;;;;;;5045875;28;20132;-61
2023/04/30 08:30:11;;;;;;;6.60;3.10;;;13.70;99.90;;;;;;5029342;28;20063;-62
2023/04/30 08:32:37;;;;;;;9.32;3.13;;;13.80;99.90;;;;;;5040828;28;20045;-63
2023/04/30 08:35:06;;;;;;;6.93;3.10;;;13.90;99.90;;;;;;5039822;28;20432;-62
2023/04/30 08:37:32;;;;;;;10.27;3.70;;;14.00;99.90;;;;;;5045375;28;20392;-62
2023/04/30 08:39:58;;;;;;;9.63;3.63;;;14.10;99.90;;;;;;5046911;28;20042;-64
2023/04/30 08:42:28;;;;;;;9.23;3.35;;;14.20;99.90;;;;;;5043842;28;20041;-63
2023/04/30 08:44:54;;;;;;;8.88;3.70;;;14.30;99.90;;;;;;5046525;28;20492;-63
2023/04/30 08:47:21;;;;;;;9.25;3.88;;;14.30;99.90;;;;;;5046938;28;20048;-63
2023/04/30 08:49:47;;;;;;;10.00;4.07;;;14.20;99.90;;;;;;5046367;28;20341;-62
2023/04/30 08:52:13;;;;;;;8.77;3.60;;;14.30;99.90;;;;;;5045032;28;20052;-62
2023/04/30 08:54:39;;;;;;;11.95;4.30;;;14.40;99.90;;;;;;5043978;28;20564;-63
2023/04/30 08:57:04;;;;;;;9.55;3.50;;;14.30;99.90;;;;;;5047339;28;20051;-64
2023/04/30 08:59:30;;;;;;;8.68;3.53;;;14.30;99.90;;;;;;5047637;28;20065;-63
2023/04/30 09:01:56;;;;;;;9.88;3.65;;;14.40;99.90;;;;;;5045856;28;20048;-63
2023/04/30 09:04:22;;;;;;;9.52;3.83;;;14.50;99.90;;;;;;5048608;28;20083;-62
2023/04/30 09:06:47;;;;;;;8.63;3.20;;;14.40;99.90;;;;;;5047322;28;20049;-63
2023/04/30 09:09:15;;;;;;;9.13;3.13;;;14.40;99.90;;;;;;5045186;28;20041;-64
2023/04/30 09:11:41;;;;;;;7.07;3.45;;;14.50;99.90;;;;;;5044720;28;20133;-63
2023/04/30 09:14:07;;;;;;;8.13;3.42;;;14.70;99.90;;;;;;5047962;28;20475;-64
2023/04/30 09:16:47;;;;;;;9.00;3.78;;;14.70;99.90;;;;;;5047428;28;20108;-63
2023/04/30 09:19:23;;;;;;;8.55;3.53;;;14.60;99.90;;;;;;5048315;28;20051;-63
2023/04/30 09:21:49;;;;;;;9.43;3.22;;;14.60;99.90;;;;;;5047058;28;20040;-66
2023/04/30 09:24:15;;;;;;;11.32;3.53;;;14.60;99.90;;;;;;5048356;28;20037;-63
2023/04/30 09:26:42;;;;;;;8.25;3.28;;;14.70;99.90;;;;;;5049054;28;20403;-64
2023/04/30 09:29:09;;;;;;;9.98;3.30;;;14.90;99.90;;;;;;5048404;28;20036;-65
2023/04/30 09:31:36;;;;;;;8.25;3.25;;;15.00;99.90;;;;;;5052081;28;20116;-64
2023/04/30 09:34:02;;;;;;;13.52;3.50;;;15.00;99.90;;;;;;5048701;28;20084;-62
2023/04/30 09:36:28;;;;;;;11.55;3.60;;;15.00;99.90;;;;;;5047834;28;20057;-63
2023/04/30 09:38:54;;;;;;;12.27;3.42;;;15.10;99.90;;;;;;5046462;28;20045;-63
2023/04/30 09:41:27;;;;;;;9.18;3.30;;;15.20;99.90;;;;;;5046865;28;20067;-63
2023/04/30 09:43:56;;;;;;;8.75;3.38;;;15.30;99.90;;;;;;5041420;28;20048;-63
2023/04/30 09:46:30;;;;;;;7.28;3.15;;;15.10;99.90;;;;;;5047507;28;20475;-62
2023/04/30 09:48:58;;;;;;;8.32;3.22;;;15.10;99.90;;;;;;5048627;28;20064;-63
2023/04/30 09:51:24;;;;;;;10.07;3.70;;;15.10;99.90;;;;;;5050468;28;20146;-63
2023/04/30 09:53:53;;;;;;;8.63;3.42;;;15.10;99.90;;;;;;5046025;28;20045;-63
2023/04/30 09:56:25;;;;;;;7.47;3.58;;;15.10;99.90;;;;;;5052112;28;20055;-62
2023/04/30 09:58:55;;;;;;;10.77;3.75;;;15.20;99.90;;;;;;5049254;28;20455;-64
2023/04/30 10:01:25;;;;;;;9.27;3.75;;;15.20;99.90;;;;;;5045186;28;20506;-63
2023/04/30 10:03:52;;;;;;;9.40;3.05;;;15.30;99.90;;;;;;5047724;28;20047;-64
2023/04/30 10:06:19;;;;;;;8.10;3.50;;;15.20;99.90;;;;;;5040222;28;20156;-63
2023/04/30 10:08:52;;;;;;;9.20;3.30;;;15.20;99.90;;;;;;5041895;28;20453;-62
2023/04/30 10:11:20;;;;;;;8.27;3.03;;;15.20;99.90;;;;;;5048630;28;20061;-63
2023/04/30 10:13:51;;;;;;;7.18;3.20;;;15.40;99.90;;;;;;5049733;28;20631;-63
2023/04/30 10:16:41;;;;;;;8.30;3.45;;;15.50;99.90;;;;;;5047403;28;20045;-64
2023/04/30 10:19:24;;;;;;;7.20;3.15;;;15.50;99.90;;;;;;5049094;28;20064;-64
2023/04/30 10:21:50;;;;;;;9.23;3.30;;;15.60;99.90;;;;;;5048881;28;20073;-63
2023/04/30 10:24:18;;;;;;;8.23;3.42;;;15.70;99.90;;;;;;5047082;28;20487;-63
2023/04/30 10:26:46;;;;;;;9.13;3.20;;;15.80;99.90;;;;;;5048005;28;20404;-65
2023/04/30 10:29:16;;;;;;;5.70;3.15;;;15.90;99.90;;;;;;5048498;28;20132;-64
2023/04/30 10:31:47;;;;;;;7.18;3.08;;;15.80;99.90;;;;;;5048519;28;20061;-63
2023/04/30 10:34:53;;;;;;;7.55;3.00;;;16.00;99.90;;;;;;5048734;28;20051;-64
2023/04/30 10:37:22;;;;;;;;;;;16.00;99.90;;;;;;5048133;28;20060;-63
2023/04/30 10:39:49;;;;;;;8.88;2.45;;;16.10;99.90;;;;;;5048173;28;19921;-63
2023/04/30 10:42:14;;;;;;;8.73;3.30;;;16.20;99.90;;;;;;5042868;28;20085;-63
2023/04/30 10:44:40;;;;;;;8.18;2.92;;;16.40;99.90;;;;;;5040221;28;20829;-63
2023/04/30 10:47:06;;;;;;;9.80;3.20;;;16.50;99.90;;;;;;5041668;28;20502;-64
2023/04/30 10:49:33;;;;;;;7.45;2.72;;;16.60;99.90;;;;;;5033125;28;20080;-64
2023/04/30 10:52:03;;;;;;;10.05;3.45;;;16.50;99.90;;;;;;5035644;28;20449;-64
2023/04/30 10:54:36;;;;;;;7.75;3.25;;;16.50;99.90;;;;;;5031401;28;20053;-63
2023/04/30 10:57:16;;;;;;;6.95;2.83;;;16.50;99.90;;;;;;5039018;28;20041;-63
2023/04/30 11:00:13;;;;;;;9.27;2.85;;;16.60;99.90;;;;;;5049043;28;20044;-64
2023/04/30 11:02:43;;;;;;;9.52;3.50;;;16.60;99.90;;;;;;5038070;28;20468;-62
2023/04/30 11:05:19;;;;;;;7.32;2.75;;;16.50;99.90;;;;;;5048497;28;20033;-64
2023/04/30 11:07:56;;;;;;;6.20;3.10;;;16.70;99.90;;;;;;5050311;28;20082;-63
2023/04/30 11:10:25;;;;;;;6.30;2.75;;;16.70;99.90;;;;;;5049060;28;20071;-62
2023/04/30 11:12:52;;;;;;;9.98;3.20;;;16.80;99.90;;;;;;5046237;28;20468;-62
2023/04/30 11:15:21;;;;;;;7.57;3.00;;;16.80;99.90;;;;;;5044857;28;20045;-64
2023/04/30 11:17:48;;;;;;;6.93;2.80;;;16.80;99.90;;;;;;5046268;28;20046;-63
2023/04/30 11:20:18;;;;;;;7.93;3.08;;;16.90;99.90;;;;;;5045698;28;20060;-63
2023/04/30 11:22:44;;;;;;;6.57;2.60;;;16.90;99.90;;;;;;5047901;28;20094;-64
2023/04/30 11:25:14;;;;;;;8.43;2.55;;;17.00;99.90;;;;;;5048654;28;20037;-62
2023/04/30 11:27:46;;;;;;;7.45;3.20;;;17.00;99.90;;;;;;5045069;28;20037;-62
2023/04/30 11:30:14;;;;;;;9.07;3.20;;;17.20;99.90;;;;;;5049553;28;20183;-63
2023/04/30 11:32:41;;;;;;;6.90;2.53;;;17.30;99.90;;;;;;5046926;28;20170;-63
2023/04/30 11:35:07;;;;;;;8.20;3.13;;;17.40;99.90;;;;;;5048971;28;20071;-63
2023/04/30 11:37:34;;;;;;;7.80;3.33;;;17.60;99.90;;;;;;5046624;28;20036;-63
2023/04/30 11:40:09;;;;;;;10.73;3.70;;;17.80;99.90;;;;;;5040569;28;20041;-64
2023/04/30 11:42:38;;;;;;;7.47;2.70;;;17.80;99.90;;;;;;5038630;28;20045;-62
2023/04/30 11:45:10;;;;;;;8.00;2.90;;;17.80;99.90;;;;;;5049755;28;20076;-64
2023/04/30 11:47:40;;;;;;;6.32;2.90;;;17.80;99.90;;;;;;5034686;28;20128;-62
2023/04/30 11:50:07;;;;;;;6.65;2.67;;;17.80;99.90;;;;;;5047013;28;20167;-63
2023/04/30 11:52:38;;;;;;;6.32;2.53;;;17.90;99.90;;;;;;5042810;28;20125;-62
2023/04/30 11:55:17;;;;;;;7.18;2.67;;;17.80;99.90;;;;;;5040953;28;20064;-63
2023/04/30 11:57:45;;;;;;;5.30;2.13;;;17.80;99.90;;;;;;5049279;28;20124;-63
2023/04/30 12:00:19;;;;;;;6.72;2.22;;;18.00;99.90;;;;;;5037130;28;20048;-62
2023/04/30 12:02:46;;;;;;;7.45;2.80;;;18.10;99.90;;;;;;5039228;28;20060;-62
2023/04/30 12:05:20;;;;;;;5.97;2.70;;;18.30;99.90;;;;;;5048344;28;20469;-63
2023/04/30 12:08:00;;;;;;;6.68;2.90;;;18.40;99.90;;;;;;5048319;28;20069;-65
2023/04/30 12:10:29;;;;;;;6.88;2.75;;;18.30;99.90;;;;;;5035623;28;20055;-63
2023/04/30 12:12:55;;;;;;;6.18;2.78;;;18.50;99.90;;;;;;5050176;28;20044;-61
2023/04/30 12:15:26;;;;;;;6.00;2.45;;;18.40;99.90;;;;;;5045914;28;20037;-63
2023/04/30 12:17:56;;;;;;;6.80;2.55;;;18.60;99.90;;;;;;5035189;28;20508;-62
2023/04/30 12:20:24;;;;;;;5.93;2.55;;;18.70;99.90;;;;;;5049389;28;20048;-62
2023/04/30 12:22:50;;;;;;;6.28;2.67;;;18.80;99.90;;;;;;5041027;28;20069;-63
2023/04/30 12:25:18;;;;;;;6.90;2.90;;;18.90;99.90;;;;;;5034731;28;20055;-63
2023/04/30 12:27:51;;;;;;;7.18;2.47;;;19.00;99.90;;;;;;5047977;28;20132;-62
2023/04/30 12:30:23;;;;;;;6.35;2.50;;;19.00;99.90;;;;;;5040227;28;20112;-62
2023/04/30 12:32:50;;;;;;;8.25;2.70;;;18.90;99.90;;;;;;5030194;28;20048;-62
2023/04/30 12:35:21;;;;;;;7.45;2.75;;;19.00;99.90;;;;;;5030715;28;20091;-64
2023/04/30 12:37:50;;;;;;;6.82;3.25;;;19.10;99.90;;;;;;5049540;28;20468;-62
2023/04/30 12:40:18;;;;;;;6.88;3.08;;;19.30;99.90;;;;;;5048959;28;20515;-63
2023/04/30 12:42:45;;;;;;;6.95;3.30;;;19.40;99.90;;;;;;5050460;28;20072;-62
2023/04/30 12:45:11;;;;;;;6.60;2.63;;;19.40;99.90;;;;;;5044888;28;20033;-62
2023/04/30 12:47:39;;;;;;;7.88;2.85;;;19.30;99.90;;;;;;5048073;28;20102;-62
2023/04/30 12:50:11;;;;;;;6.35;2.83;;;19.30;99.90;;;;;;5053881;28;20496;-62
2023/04/30 12:52:40;;;;;;;5.75;2.70;;;19.40;99.90;;;;;;5051581;28;20037;-63
2023/04/30 12:55:19;;;;;;;6.22;2.80;;;19.40;99.90;;;;;;5074339;28;20053;-63